sensor_id;sensor_type;location;lat;lon;timestamp;temperature;humidity
8910;DHT22;4490;49.072;8.804;2022-10-16T00:01:21;17.50;99.90
8910;DHT22;4490;49.072;8.804;2022-10-16T00:03:47;17.50;99.90
8910;DHT22;4490;49.072;8.804;2022-10-16T00:06:15;17.40;99.90
8910;DHT22;4490;49.072;8.804;2022-10-16T00:08:41;17.40;99.90
8910;DHT22;4490;49.072;8.804;2022-10-16T00:11:16;17.40;99.90
8910;DHT22;4490;49.072;8.804;2022-10-16T00:13:44;17.40;99.90
8910;DHT22;4490;49.072;8.804;2022-10-16T00:16:11;17.40;99.90
8910;DHT22;4490;49.072;8.804;2022-10-16T00:18:37;17.40;99.90
8910;DHT22;4490;49.072;8.804;2022-10-16T00:21:05;17.40;99.90
8910;DHT22;4490;49.072;8.804;2022-10-16T00:23:31;17.40;99.90
8910;DHT22;4490;49.072;8.804;2022-10-16T00:25:59;17.50;99.90
8910;DHT22;4490;49.072;8.804;2022-10-16T00:28:25;17.50;99.90
8910;DHT22;4490;49.072;8.804;2022-10-16T00:30:50;17.40;99.90
8910;DHT22;4490;49.072;8.804;2022-10-16T00:33:16;17.40;99.90
8910;DHT22;4490;49.072;8.804;2022-10-16T00:35:42;17.40;99.90
8910;DHT22;4490;49.072;8.804;2022-10-16T00:38:07;17.40;99.90
8910;DHT22;4490;49.072;8.804;2022-10-16T00:40:33;17.40;99.90
8910;DHT22;4490;49.072;8.804;2022-10-16T00:42:59;17.40;99.90
8910;DHT22;4490;49.072;8.804;2022-10-16T00:45:24;17.40;99.90
8910;DHT22;4490;49.072;8.804;2022-10-16T00:47:52;17.40;99.90
8910;DHT22;4490;49.072;8.804;2022-10-16T00:50:33;17.40;99.90
8910;DHT22;4490;49.072;8.804;2022-10-16T00:53:00;17.40;99.90
8910;DHT22;4490;49.072;8.804;2022-10-16T00:55:27;17.30;99.90
8910;DHT22;4490;49.072;8.804;2022-10-16T00:57:55;17.40;99.90
8910;DHT22;4490;49.072;8.804;2022-10-16T01:00:25;17.40;99.90
8910;DHT22;4490;49.072;8.804;2022-10-16T01:02:59;17.40;99.90
8910;DHT22;4490;49.072;8.804;2022-10-16T01:05:33;17.40;99.90
8910;DHT22;4490;49.072;8.804;2022-10-16T01:08:23;17.40;99.90
8910;DHT22;4490;49.072;8.804;2022-10-16T01:11:24;17.30;99.90
8910;DHT22;4490;49.072;8.804;2022-10-16T01:13:58;17.30;99.90
8910;DHT22;4490;49.072;8.804;2022-10-16T01:16:39;17.30;99.90
8910;DHT22;4490;49.072;8.804;2022-10-16T01:19:16;17.30;99.90
8910;DHT22;4490;49.072;8.804;2022-10-16T01:21:45;17.30;99.90
8910;DHT22;4490;49.072;8.804;2022-10-16T01:35:04;17.30;99.90
8910;DHT22;4490;49.072;8.804;2022-10-16T01:40:28;17.40;99.90
8910;DHT22;4490;49.072;8.804;2022-10-16T01:43:08;17.40;99.90
8910;DHT22;4490;49.072;8.804;2022-10-16T01:45:36;17.40;99.90
8910;DHT22;4490;49.072;8.804;2022-10-16T01:48:05;17.40;99.90
8910;DHT22;4490;49.072;8.804;2022-10-16T01:50:35;17.40;99.90
8910;DHT22;4490;49.072;8.804;2022-10-16T01:53:03;17.40;99.90
8910;DHT22;4490;49.072;8.804;2022-10-16T01:55:33;17.30;99.90
8910;DHT22;4490;49.072;8.804;2022-10-16T01:58:02;17.40;99.90
8910;DHT22;4490;49.072;8.804;2022-10-16T02:00:30;17.40;99.90
8910;DHT22;4490;49.072;8.804;2022-10-16T02:02:57;17.40;99.90
8910;DHT22;4490;49.072;8.804;2022-10-16T02:07:58;17.40;99.90
8910;DHT22;4490;49.072;8.804;2022-10-16T02:10:25;17.40;99.90
8910;DHT22;4490;49.072;8.804;2022-10-16T02:12:58;17.40;99.90
8910;DHT22;4490;49.072;8.804;2022-10-16T02:15:25;17.40;99.90
8910;DHT22;4490;49.072;8.804;2022-10-16T02:17:51;17.40;99.90
8910;DHT22;4490;49.072;8.804;2022-10-16T02:20:16;17.40;99.90
8910;DHT22;4490;49.072;8.804;2022-10-16T02:22:46;17.40;99.90
8910;DHT22;4490;49.072;8.804;2022-10-16T02:25:27;17.40;99.90
8910;DHT22;4490;49.072;8.804;2022-10-16T02:28:03;17.40;99.90
8910;DHT22;4490;49.072;8.804;2022-10-16T02:30:42;17.40;99.90
8910;DHT22;4490;49.072;8.804;2022-10-16T02:33:10;17.40;99.90
8910;DHT22;4490;49.072;8.804;2022-10-16T02:35:40;17.40;99.90
8910;DHT22;4490;49.072;8.804;2022-10-16T02:38:08;17.40;99.90
8910;DHT22;4490;49.072;8.804;2022-10-16T02:40:34;17.40;99.90
8910;DHT22;4490;49.072;8.804;2022-10-16T02:43:04;17.40;99.90
8910;DHT22;4490;49.072;8.804;2022-10-16T02:45:30;17.40;99.90
8910;DHT22;4490;49.072;8.804;2022-10-16T02:47:55;17.40;99.90
8910;DHT22;4490;49.072;8.804;2022-10-16T02:50:21;17.40;99.90
8910;DHT22;4490;49.072;8.804;2022-10-16T02:52:48;17.40;99.90
8910;DHT22;4490;49.072;8.804;2022-10-16T02:55:13;17.40;99.90
8910;DHT22;4490;49.072;8.804;2022-10-16T02:57:39;17.40;99.90
8910;DHT22;4490;49.072;8.804;2022-10-16T03:00:07;17.40;99.90
8910;DHT22;4490;49.072;8.804;2022-10-16T03:02:33;17.40;99.90
8910;DHT22;4490;49.072;8.804;2022-10-16T03:04:59;17.40;99.90
8910;DHT22;4490;49.072;8.804;2022-10-16T03:07:24;17.40;99.90
8910;DHT22;4490;49.072;8.804;2022-10-16T03:09:50;17.40;99.90
8910;DHT22;4490;49.072;8.804;2022-10-16T03:12:15;17.40;99.90
8910;DHT22;4490;49.072;8.804;2022-10-16T03:14:41;17.30;99.90
8910;DHT22;4490;49.072;8.804;2022-10-16T03:17:07;17.30;99.90
8910;DHT22;4490;49.072;8.804;2022-10-16T03:19:32;17.40;99.90
8910;DHT22;4490;49.072;8.804;2022-10-16T03:21:58;17.40;99.90
8910;DHT22;4490;49.072;8.804;2022-10-16T03:24:23;17.40;99.90
8910;DHT22;4490;49.072;8.804;2022-10-16T03:26:49;17.30;99.90
8910;DHT22;4490;49.072;8.804;2022-10-16T03:29:15;17.30;99.90
8910;DHT22;4490;49.072;8.804;2022-10-16T03:31:40;17.30;99.90
8910;DHT22;4490;49.072;8.804;2022-10-16T03:34:06;17.30;99.90
8910;DHT22;4490;49.072;8.804;2022-10-16T03:36:31;17.30;99.90
8910;DHT22;4490;49.072;8.804;2022-10-16T03:38:57;17.30;99.90
8910;DHT22;4490;49.072;8.804;2022-10-16T03:41:23;17.30;99.90
8910;DHT22;4490;49.072;8.804;2022-10-16T03:43:48;17.30;99.90
8910;DHT22;4490;49.072;8.804;2022-10-16T03:46:14;17.30;99.90
8910;DHT22;4490;49.072;8.804;2022-10-16T03:48:39;17.30;99.90
8910;DHT22;4490;49.072;8.804;2022-10-16T03:51:05;17.30;99.90
8910;DHT22;4490;49.072;8.804;2022-10-16T03:53:31;17.30;99.90
8910;DHT22;4490;49.072;8.804;2022-10-16T03:55:57;17.40;99.90
8910;DHT22;4490;49.072;8.804;2022-10-16T03:58:23;17.30;99.90
8910;DHT22;4490;49.072;8.804;2022-10-16T04:00:49;17.30;99.90
8910;DHT22;4490;49.072;8.804;2022-10-16T04:03:15;17.40;99.90
8910;DHT22;4490;49.072;8.804;2022-10-16T04:05:41;17.40;99.90
8910;DHT22;4490;49.072;8.804;2022-10-16T04:08:06;17.30;99.90
8910;DHT22;4490;49.072;8.804;2022-10-16T04:10:32;17.30;99.90
8910;DHT22;4490;49.072;8.804;2022-10-16T04:12:57;17.30;99.90
8910;DHT22;4490;49.072;8.804;2022-10-16T04:15:24;17.30;99.90
8910;DHT22;4490;49.072;8.804;2022-10-16T04:17:51;17.30;99.90
8910;DHT22;4490;49.072;8.804;2022-10-16T04:20:17;17.30;99.90
8910;DHT22;4490;49.072;8.804;2022-10-16T04:22:43;17.30;99.90
8910;DHT22;4490;49.072;8.804;2022-10-16T04:25:09;17.30;99.90
8910;DHT22;4490;49.072;8.804;2022-10-16T04:27:35;17.30;99.90
8910;DHT22;4490;49.072;8.804;2022-10-16T04:30:01;17.20;99.90
8910;DHT22;4490;49.072;8.804;2022-10-16T04:32:27;17.20;99.90
8910;DHT22;4490;49.072;8.804;2022-10-16T04:34:52;17.10;99.90
8910;DHT22;4490;49.072;8.804;2022-10-16T04:37:18;17.10;99.90
8910;DHT22;4490;49.072;8.804;2022-10-16T04:39:44;17.10;99.90
8910;DHT22;4490;49.072;8.804;2022-10-16T04:42:10;17.10;99.90
8910;DHT22;4490;49.072;8.804;2022-10-16T04:44:36;17.10;99.90
8910;DHT22;4490;49.072;8.804;2022-10-16T04:47:02;17.00;99.90
8910;DHT22;4490;49.072;8.804;2022-10-16T04:49:28;17.00;99.90
8910;DHT22;4490;49.072;8.804;2022-10-16T04:51:53;17.00;99.90
8910;DHT22;4490;49.072;8.804;2022-10-16T04:54:19;17.00;99.90
8910;DHT22;4490;49.072;8.804;2022-10-16T04:56:44;17.00;99.90
8910;DHT22;4490;49.072;8.804;2022-10-16T04:59:16;17.00;99.90
8910;DHT22;4490;49.072;8.804;2022-10-16T05:01:42;17.00;99.90
8910;DHT22;4490;49.072;8.804;2022-10-16T05:04:08;17.00;99.90
8910;DHT22;4490;49.072;8.804;2022-10-16T05:06:34;17.00;99.90
8910;DHT22;4490;49.072;8.804;2022-10-16T05:08:59;17.00;99.90
8910;DHT22;4490;49.072;8.804;2022-10-16T05:11:25;16.90;99.90
8910;DHT22;4490;49.072;8.804;2022-10-16T05:13:50;16.90;99.90
8910;DHT22;4490;49.072;8.804;2022-10-16T05:16:16;16.90;99.90
8910;DHT22;4490;49.072;8.804;2022-10-16T05:18:42;16.90;99.90
8910;DHT22;4490;49.072;8.804;2022-10-16T05:21:08;16.90;99.90
8910;DHT22;4490;49.072;8.804;2022-10-16T05:23:34;16.90;99.90
8910;DHT22;4490;49.072;8.804;2022-10-16T05:26:00;16.90;99.90
8910;DHT22;4490;49.072;8.804;2022-10-16T05:28:27;16.90;99.90
8910;DHT22;4490;49.072;8.804;2022-10-16T05:30:54;16.90;99.90
8910;DHT22;4490;49.072;8.804;2022-10-16T05:33:20;16.90;99.90
8910;DHT22;4490;49.072;8.804;2022-10-16T05:35:46;16.90;99.90
8910;DHT22;4490;49.072;8.804;2022-10-16T05:38:12;16.90;99.90
8910;DHT22;4490;49.072;8.804;2022-10-16T05:40:38;16.90;99.90
8910;DHT22;4490;49.072;8.804;2022-10-16T05:43:03;16.80;99.90
8910;DHT22;4490;49.072;8.804;2022-10-16T05:45:29;16.80;99.90
8910;DHT22;4490;49.072;8.804;2022-10-16T05:47:55;16.80;99.90
8910;DHT22;4490;49.072;8.804;2022-10-16T05:50:20;16.80;99.90
8910;DHT22;4490;49.072;8.804;2022-10-16T05:52:46;16.80;99.90
8910;DHT22;4490;49.072;8.804;2022-10-16T05:55:12;16.70;99.90
8910;DHT22;4490;49.072;8.804;2022-10-16T05:57:37;16.80;99.90
8910;DHT22;4490;49.072;8.804;2022-10-16T06:00:04;16.70;99.90
8910;DHT22;4490;49.072;8.804;2022-10-16T06:02:30;16.70;99.90
8910;DHT22;4490;49.072;8.804;2022-10-16T06:04:55;16.80;99.90
8910;DHT22;4490;49.072;8.804;2022-10-16T06:07:22;16.80;99.90
8910;DHT22;4490;49.072;8.804;2022-10-16T06:09:51;16.80;99.90
8910;DHT22;4490;49.072;8.804;2022-10-16T06:12:18;16.80;99.90
8910;DHT22;4490;49.072;8.804;2022-10-16T06:14:45;16.80;99.90
8910;DHT22;4490;49.072;8.804;2022-10-16T06:17:12;16.70;99.90
8910;DHT22;4490;49.072;8.804;2022-10-16T06:19:38;16.70;99.90
8910;DHT22;4490;49.072;8.804;2022-10-16T06:22:04;16.70;99.90
8910;DHT22;4490;49.072;8.804;2022-10-16T06:24:29;16.70;99.90
8910;DHT22;4490;49.072;8.804;2022-10-16T06:26:55;16.70;99.90
8910;DHT22;4490;49.072;8.804;2022-10-16T06:29:21;16.70;99.90
8910;DHT22;4490;49.072;8.804;2022-10-16T06:31:46;16.70;99.90
8910;DHT22;4490;49.072;8.804;2022-10-16T06:34:12;16.70;99.90
8910;DHT22;4490;49.072;8.804;2022-10-16T06:36:38;16.70;99.90
8910;DHT22;4490;49.072;8.804;2022-10-16T06:39:05;16.70;99.90
8910;DHT22;4490;49.072;8.804;2022-10-16T06:41:32;16.70;99.90
8910;DHT22;4490;49.072;8.804;2022-10-16T06:43:58;16.70;99.90
8910;DHT22;4490;49.072;8.804;2022-10-16T06:46:25;16.70;99.90
8910;DHT22;4490;49.072;8.804;2022-10-16T06:48:51;16.70;99.90
8910;DHT22;4490;49.072;8.804;2022-10-16T06:51:19;16.70;99.90
8910;DHT22;4490;49.072;8.804;2022-10-16T06:53:50;16.70;99.90
8910;DHT22;4490;49.072;8.804;2022-10-16T06:56:20;16.80;99.90
8910;DHT22;4490;49.072;8.804;2022-10-16T06:58:47;16.80;99.90
8910;DHT22;4490;49.072;8.804;2022-10-16T07:01:13;16.80;99.90
8910;DHT22;4490;49.072;8.804;2022-10-16T07:03:41;16.80;99.90
8910;DHT22;4490;49.072;8.804;2022-10-16T07:06:10;16.90;99.90
8910;DHT22;4490;49.072;8.804;2022-10-16T07:08:37;16.90;99.90
8910;DHT22;4490;49.072;8.804;2022-10-16T07:11:05;16.90;99.90
8910;DHT22;4490;49.072;8.804;2022-10-16T07:13:38;16.90;99.90
8910;DHT22;4490;49.072;8.804;2022-10-16T07:16:09;17.00;99.90
8910;DHT22;4490;49.072;8.804;2022-10-16T07:18:35;17.00;99.90
8910;DHT22;4490;49.072;8.804;2022-10-16T07:21:29;17.00;99.90
8910;DHT22;4490;49.072;8.804;2022-10-16T07:23:59;17.10;99.90
8910;DHT22;4490;49.072;8.804;2022-10-16T07:26:27;17.10;99.90
8910;DHT22;4490;49.072;8.804;2022-10-16T07:28:53;17.10;99.90
8910;DHT22;4490;49.072;8.804;2022-10-16T07:31:20;17.30;99.90
8910;DHT22;4490;49.072;8.804;2022-10-16T07:33:47;17.30;99.90
8910;DHT22;4490;49.072;8.804;2022-10-16T07:36:15;17.40;99.90
8910;DHT22;4490;49.072;8.804;2022-10-16T07:38:40;17.50;99.90
8910;DHT22;4490;49.072;8.804;2022-10-16T07:41:10;17.60;99.90
8910;DHT22;4490;49.072;8.804;2022-10-16T07:43:36;17.70;99.90
8910;DHT22;4490;49.072;8.804;2022-10-16T07:46:02;17.80;99.90
8910;DHT22;4490;49.072;8.804;2022-10-16T07:48:31;17.80;99.90
8910;DHT22;4490;49.072;8.804;2022-10-16T07:50:59;17.90;99.90
8910;DHT22;4490;49.072;8.804;2022-10-16T07:53:25;18.00;99.90
8910;DHT22;4490;49.072;8.804;2022-10-16T07:55:51;18.10;99.90
8910;DHT22;4490;49.072;8.804;2022-10-16T07:58:17;18.10;99.90
8910;DHT22;4490;49.072;8.804;2022-10-16T08:00:42;18.30;99.90
8910;DHT22;4490;49.072;8.804;2022-10-16T08:03:08;18.40;99.90
8910;DHT22;4490;49.072;8.804;2022-10-16T08:05:34;18.50;99.90
8910;DHT22;4490;49.072;8.804;2022-10-16T08:08:01;18.70;99.90
8910;DHT22;4490;49.072;8.804;2022-10-16T08:10:28;18.80;99.90
8910;DHT22;4490;49.072;8.804;2022-10-16T08:12:54;19.00;99.90
8910;DHT22;4490;49.072;8.804;2022-10-16T08:15:19;19.10;99.90
8910;DHT22;4490;49.072;8.804;2022-10-16T08:17:58;19.20;99.90
8910;DHT22;4490;49.072;8.804;2022-10-16T08:20:24;19.20;99.90
8910;DHT22;4490;49.072;8.804;2022-10-16T08:22:50;19.30;99.90
8910;DHT22;4490;49.072;8.804;2022-10-16T08:25:15;19.50;99.90
8910;DHT22;4490;49.072;8.804;2022-10-16T08:27:41;19.60;99.90
8910;DHT22;4490;49.072;8.804;2022-10-16T08:30:08;19.60;99.90
8910;DHT22;4490;49.072;8.804;2022-10-16T08:32:34;19.70;99.90
8910;DHT22;4490;49.072;8.804;2022-10-16T08:34:59;19.70;99.90
8910;DHT22;4490;49.072;8.804;2022-10-16T08:37:29;19.80;99.90
8910;DHT22;4490;49.072;8.804;2022-10-16T08:39:54;19.80;99.90
8910;DHT22;4490;49.072;8.804;2022-10-16T08:42:31;19.90;99.90
8910;DHT22;4490;49.072;8.804;2022-10-16T08:50:44;20.20;99.90
8910;DHT22;4490;49.072;8.804;2022-10-16T08:53:17;20.20;99.90
8910;DHT22;4490;49.072;8.804;2022-10-16T08:55:46;20.30;99.90
8910;DHT22;4490;49.072;8.804;2022-10-16T08:58:17;20.40;99.90
8910;DHT22;4490;49.072;8.804;2022-10-16T09:00:47;20.30;99.90
8910;DHT22;4490;49.072;8.804;2022-10-16T09:04:06;20.30;99.90
8910;DHT22;4490;49.072;8.804;2022-10-16T09:08:52;20.40;99.90
8910;DHT22;4490;49.072;8.804;2022-10-16T09:11:34;20.40;99.90
8910;DHT22;4490;49.072;8.804;2022-10-16T09:16:42;20.60;99.90
8910;DHT22;4490;49.072;8.804;2022-10-16T09:21:44;20.90;99.90
8910;DHT22;4490;49.072;8.804;2022-10-16T09:26:39;21.00;98.70
8910;DHT22;4490;49.072;8.804;2022-10-16T09:29:04;21.10;97.70
8910;DHT22;4490;49.072;8.804;2022-10-16T09:31:30;21.20;97.80
8910;DHT22;4490;49.072;8.804;2022-10-16T09:33:58;21.30;97.60
8910;DHT22;4490;49.072;8.804;2022-10-16T09:36:27;21.40;97.00
8910;DHT22;4490;49.072;8.804;2022-10-16T09:39:10;21.60;96.30
8910;DHT22;4490;49.072;8.804;2022-10-16T09:41:42;21.70;95.70
8910;DHT22;4490;49.072;8.804;2022-10-16T09:44:35;21.80;96.70
8910;DHT22;4490;49.072;8.804;2022-10-16T09:47:17;21.90;96.50
8910;DHT22;4490;49.072;8.804;2022-10-16T09:50:01;21.90;95.80
8910;DHT22;4490;49.072;8.804;2022-10-16T09:52:30;21.90;96.10
8910;DHT22;4490;49.072;8.804;2022-10-16T09:55:01;21.80;96.30
8910;DHT22;4490;49.072;8.804;2022-10-16T09:57:28;21.80;96.10
8910;DHT22;4490;49.072;8.804;2022-10-16T09:59:56;21.80;96.20
8910;DHT22;4490;49.072;8.804;2022-10-16T10:02:34;21.80;96.10
8910;DHT22;4490;49.072;8.804;2022-10-16T10:05:00;21.90;95.70
8910;DHT22;4490;49.072;8.804;2022-10-16T10:07:35;21.90;96.10
8910;DHT22;4490;49.072;8.804;2022-10-16T10:10:05;21.90;95.70
8910;DHT22;4490;49.072;8.804;2022-10-16T10:12:32;22.00;95.10
8910;DHT22;4490;49.072;8.804;2022-10-16T10:15:07;22.10;93.80
8910;DHT22;4490;49.072;8.804;2022-10-16T10:17:45;22.30;93.50
8910;DHT22;4490;49.072;8.804;2022-10-16T10:20:31;22.40;93.10
8910;DHT22;4490;49.072;8.804;2022-10-16T10:23:00;22.60;91.60
8910;DHT22;4490;49.072;8.804;2022-10-16T10:25:50;22.70;92.70
8910;DHT22;4490;49.072;8.804;2022-10-16T10:37:22;23.10;91.40
8910;DHT22;4490;49.072;8.804;2022-10-16T10:42:53;23.10;90.50
8910;DHT22;4490;49.072;8.804;2022-10-16T10:45:43;23.10;90.40
8910;DHT22;4490;49.072;8.804;2022-10-16T10:56:44;23.40;87.30
8910;DHT22;4490;49.072;8.804;2022-10-16T11:04:23;23.80;89.60
8910;DHT22;4490;49.072;8.804;2022-10-16T11:07:11;24.00;88.40
8910;DHT22;4490;49.072;8.804;2022-10-16T11:10:16;24.20;87.90
8910;DHT22;4490;49.072;8.804;2022-10-16T11:12:47;24.40;85.20
8910;DHT22;4490;49.072;8.804;2022-10-16T11:15:29;24.60;86.10
8910;DHT22;4490;49.072;8.804;2022-10-16T11:18:19;24.90;86.30
8910;DHT22;4490;49.072;8.804;2022-10-16T11:21:08;25.40;83.90
8910;DHT22;4490;49.072;8.804;2022-10-16T11:23:53;25.80;82.20
8910;DHT22;4490;49.072;8.804;2022-10-16T11:26:25;26.00;79.90
8910;DHT22;4490;49.072;8.804;2022-10-16T11:28:56;26.00;77.20
8910;DHT22;4490;49.072;8.804;2022-10-16T11:31:38;25.90;77.20
8910;DHT22;4490;49.072;8.804;2022-10-16T11:34:24;25.80;77.50
8910;DHT22;4490;49.072;8.804;2022-10-16T11:36:53;25.70;76.70
8910;DHT22;4490;49.072;8.804;2022-10-16T11:39:29;25.60;75.80
8910;DHT22;4490;49.072;8.804;2022-10-16T11:42:13;25.60;75.50
8910;DHT22;4490;49.072;8.804;2022-10-16T11:52:44;25.50;73.80
8910;DHT22;4490;49.072;8.804;2022-10-16T11:57:53;25.70;74.40
8910;DHT22;4490;49.072;8.804;2022-10-16T12:08:52;25.70;73.80
8910;DHT22;4490;49.072;8.804;2022-10-16T12:11:34;25.60;75.20
8910;DHT22;4490;49.072;8.804;2022-10-16T12:17:24;25.50;74.20
8910;DHT22;4490;49.072;8.804;2022-10-16T12:20:01;25.50;75.70
8910;DHT22;4490;49.072;8.804;2022-10-16T12:22:29;25.50;72.80
8910;DHT22;4490;49.072;8.804;2022-10-16T12:24:56;25.70;74.60
8910;DHT22;4490;49.072;8.804;2022-10-16T12:27:32;25.90;74.60
8910;DHT22;4490;49.072;8.804;2022-10-16T12:30:01;26.20;73.30
8910;DHT22;4490;49.072;8.804;2022-10-16T12:34:53;26.50;72.40
8910;DHT22;4490;49.072;8.804;2022-10-16T12:37:22;26.60;71.20
8910;DHT22;4490;49.072;8.804;2022-10-16T12:39:50;26.70;70.60
8910;DHT22;4490;49.072;8.804;2022-10-16T12:42:23;26.60;70.70
8910;DHT22;4490;49.072;8.804;2022-10-16T12:44:50;26.50;71.10
8910;DHT22;4490;49.072;8.804;2022-10-16T12:47:21;26.30;71.90
8910;DHT22;4490;49.072;8.804;2022-10-16T12:49:53;26.10;72.00
8910;DHT22;4490;49.072;8.804;2022-10-16T12:52:35;25.90;73.50
8910;DHT22;4490;49.072;8.804;2022-10-16T12:55:03;25.70;74.10
8910;DHT22;4490;49.072;8.804;2022-10-16T12:57:40;25.50;73.90
8910;DHT22;4490;49.072;8.804;2022-10-16T13:00:20;25.50;73.50
8910;DHT22;4490;49.072;8.804;2022-10-16T13:06:06;25.40;73.40
8910;DHT22;4490;49.072;8.804;2022-10-16T13:16:32;24.90;75.90
8910;DHT22;4490;49.072;8.804;2022-10-16T13:19:11;24.70;76.10
8910;DHT22;4490;49.072;8.804;2022-10-16T13:21:51;24.60;75.60
8910;DHT22;4490;49.072;8.804;2022-10-16T13:29:32;24.20;78.10
8910;DHT22;4490;49.072;8.804;2022-10-16T13:32:01;24.10;78.40
8910;DHT22;4490;49.072;8.804;2022-10-16T13:34:27;24.00;79.60
8910;DHT22;4490;49.072;8.804;2022-10-16T13:36:53;23.80;79.60
8910;DHT22;4490;49.072;8.804;2022-10-16T13:39:28;23.70;80.10
8910;DHT22;4490;49.072;8.804;2022-10-16T13:42:04;23.60;80.70
8910;DHT22;4490;49.072;8.804;2022-10-16T13:44:43;23.40;81.70
8910;DHT22;4490;49.072;8.804;2022-10-16T13:47:17;23.30;82.50
8910;DHT22;4490;49.072;8.804;2022-10-16T13:49:43;23.20;83.90
8910;DHT22;4490;49.072;8.804;2022-10-16T13:52:20;23.10;83.90
8910;DHT22;4490;49.072;8.804;2022-10-16T13:54:47;23.20;84.50
8910;DHT22;4490;49.072;8.804;2022-10-16T13:57:14;23.20;84.60
8910;DHT22;4490;49.072;8.804;2022-10-16T13:59:40;23.20;85.00
8910;DHT22;4490;49.072;8.804;2022-10-16T14:02:29;23.20;85.20
8910;DHT22;4490;49.072;8.804;2022-10-16T14:04:56;23.30;85.60
8910;DHT22;4490;49.072;8.804;2022-10-16T14:07:28;23.20;85.50
8910;DHT22;4490;49.072;8.804;2022-10-16T14:09:55;23.10;85.70
8910;DHT22;4490;49.072;8.804;2022-10-16T14:12:21;23.00;85.70
8910;DHT22;4490;49.072;8.804;2022-10-16T14:14:51;23.00;86.00
8910;DHT22;4490;49.072;8.804;2022-10-16T14:17:27;22.90;86.20
8910;DHT22;4490;49.072;8.804;2022-10-16T14:19:55;22.80;86.60
8910;DHT22;4490;49.072;8.804;2022-10-16T14:22:36;22.70;87.10
8910;DHT22;4490;49.072;8.804;2022-10-16T14:30:23;22.70;87.80
8910;DHT22;4490;49.072;8.804;2022-10-16T14:33:06;22.60;87.40
8910;DHT22;4490;49.072;8.804;2022-10-16T14:35:38;22.60;87.80
8910;DHT22;4490;49.072;8.804;2022-10-16T14:38:06;22.50;88.50
8910;DHT22;4490;49.072;8.804;2022-10-16T14:40:47;22.40;89.40
8910;DHT22;4490;49.072;8.804;2022-10-16T14:43:33;22.40;90.00
8910;DHT22;4490;49.072;8.804;2022-10-16T14:46:00;22.40;90.30
8910;DHT22;4490;49.072;8.804;2022-10-16T14:48:27;22.40;90.50
8910;DHT22;4490;49.072;8.804;2022-10-16T14:50:53;22.50;90.50
8910;DHT22;4490;49.072;8.804;2022-10-16T14:53:19;22.60;90.30
8910;DHT22;4490;49.072;8.804;2022-10-16T14:55:45;22.80;90.30
8910;DHT22;4490;49.072;8.804;2022-10-16T14:58:21;22.90;90.20
8910;DHT22;4490;49.072;8.804;2022-10-16T15:00:48;23.20;90.00
8910;DHT22;4490;49.072;8.804;2022-10-16T15:03:14;23.30;89.20
8910;DHT22;4490;49.072;8.804;2022-10-16T15:05:40;23.40;88.40
8910;DHT22;4490;49.072;8.804;2022-10-16T15:08:05;23.40;87.60
8910;DHT22;4490;49.072;8.804;2022-10-16T15:10:35;23.40;87.60
8910;DHT22;4490;49.072;8.804;2022-10-16T15:13:02;23.30;87.70
8910;DHT22;4490;49.072;8.804;2022-10-16T15:15:48;23.20;87.90
8910;DHT22;4490;49.072;8.804;2022-10-16T15:18:14;23.10;88.10
8910;DHT22;4490;49.072;8.804;2022-10-16T15:20:47;23.10;88.30
8910;DHT22;4490;49.072;8.804;2022-10-16T15:23:15;23.00;88.40
8910;DHT22;4490;49.072;8.804;2022-10-16T15:25:43;23.00;88.60
8910;DHT22;4490;49.072;8.804;2022-10-16T15:28:10;23.00;88.70
8910;DHT22;4490;49.072;8.804;2022-10-16T15:30:36;23.00;88.90
8910;DHT22;4490;49.072;8.804;2022-10-16T15:33:03;23.00;89.10
8910;DHT22;4490;49.072;8.804;2022-10-16T15:35:30;23.00;89.10
8910;DHT22;4490;49.072;8.804;2022-10-16T15:37:56;22.90;88.70
8910;DHT22;4490;49.072;8.804;2022-10-16T15:40:22;22.90;88.90
8910;DHT22;4490;49.072;8.804;2022-10-16T15:42:48;22.80;89.30
8910;DHT22;4490;49.072;8.804;2022-10-16T15:45:17;22.70;89.80
8910;DHT22;4490;49.072;8.804;2022-10-16T15:47:44;22.60;90.00
8910;DHT22;4490;49.072;8.804;2022-10-16T15:50:11;22.50;90.00
8910;DHT22;4490;49.072;8.804;2022-10-16T15:52:38;22.40;90.10
8910;DHT22;4490;49.072;8.804;2022-10-16T15:55:08;22.30;90.20
8910;DHT22;4490;49.072;8.804;2022-10-16T15:57:35;22.20;90.30
8910;DHT22;4490;49.072;8.804;2022-10-16T16:00:07;22.10;90.30
8910;DHT22;4490;49.072;8.804;2022-10-16T16:02:34;22.00;90.60
8910;DHT22;4490;49.072;8.804;2022-10-16T16:05:00;21.90;90.70
8910;DHT22;4490;49.072;8.804;2022-10-16T16:07:25;21.80;90.90
8910;DHT22;4490;49.072;8.804;2022-10-16T16:09:53;21.70;91.10
8910;DHT22;4490;49.072;8.804;2022-10-16T16:12:18;21.60;91.10
8910;DHT22;4490;49.072;8.804;2022-10-16T16:14:44;21.50;91.10
8910;DHT22;4490;49.072;8.804;2022-10-16T16:17:11;21.40;91.10
8910;DHT22;4490;49.072;8.804;2022-10-16T16:19:37;21.40;91.10
8910;DHT22;4490;49.072;8.804;2022-10-16T16:22:02;21.40;91.20
8910;DHT22;4490;49.072;8.804;2022-10-16T16:24:28;21.30;91.20
8910;DHT22;4490;49.072;8.804;2022-10-16T16:26:54;21.30;91.20
8910;DHT22;4490;49.072;8.804;2022-10-16T16:29:19;21.30;91.40
8910;DHT22;4490;49.072;8.804;2022-10-16T16:31:45;21.20;91.50
8910;DHT22;4490;49.072;8.804;2022-10-16T16:34:12;21.10;91.70
8910;DHT22;4490;49.072;8.804;2022-10-16T16:36:38;21.00;91.90
8910;DHT22;4490;49.072;8.804;2022-10-16T16:39:05;20.90;92.10
8910;DHT22;4490;49.072;8.804;2022-10-16T16:41:31;20.80;92.20
8910;DHT22;4490;49.072;8.804;2022-10-16T16:44:06;20.70;92.30
8910;DHT22;4490;49.072;8.804;2022-10-16T16:46:33;20.70;92.40
8910;DHT22;4490;49.072;8.804;2022-10-16T16:49:00;20.50;92.40
8910;DHT22;4490;49.072;8.804;2022-10-16T16:51:27;20.40;92.50
8910;DHT22;4490;49.072;8.804;2022-10-16T16:53:53;20.20;92.60
8910;DHT22;4490;49.072;8.804;2022-10-16T16:56:20;20.10;92.90
8910;DHT22;4490;49.072;8.804;2022-10-16T16:58:47;20.00;93.20
8910;DHT22;4490;49.072;8.804;2022-10-16T17:01:13;19.90;93.40
8910;DHT22;4490;49.072;8.804;2022-10-16T17:03:42;19.80;93.60
8910;DHT22;4490;49.072;8.804;2022-10-16T17:06:13;19.70;93.80
8910;DHT22;4490;49.072;8.804;2022-10-16T17:08:40;19.60;94.00
8910;DHT22;4490;49.072;8.804;2022-10-16T17:11:10;19.60;94.30
8910;DHT22;4490;49.072;8.804;2022-10-16T17:13:36;19.50;94.70
8910;DHT22;4490;49.072;8.804;2022-10-16T17:16:04;19.40;95.00
8910;DHT22;4490;49.072;8.804;2022-10-16T17:18:30;19.30;95.40
8910;DHT22;4490;49.072;8.804;2022-10-16T17:20:59;19.30;95.80
8910;DHT22;4490;49.072;8.804;2022-10-16T17:23:24;19.20;96.10
8910;DHT22;4490;49.072;8.804;2022-10-16T17:25:50;19.20;96.30
8910;DHT22;4490;49.072;8.804;2022-10-16T17:28:16;19.10;96.50
8910;DHT22;4490;49.072;8.804;2022-10-16T17:30:42;19.00;96.70
8910;DHT22;4490;49.072;8.804;2022-10-16T17:33:10;19.00;96.80
8910;DHT22;4490;49.072;8.804;2022-10-16T17:35:37;19.00;97.00
8910;DHT22;4490;49.072;8.804;2022-10-16T17:38:03;19.00;97.20
8910;DHT22;4490;49.072;8.804;2022-10-16T17:40:29;18.90;97.40
8910;DHT22;4490;49.072;8.804;2022-10-16T17:42:55;18.80;97.70
8910;DHT22;4490;49.072;8.804;2022-10-16T17:45:20;18.80;98.10
8910;DHT22;4490;49.072;8.804;2022-10-16T17:47:46;18.70;98.50
8910;DHT22;4490;49.072;8.804;2022-10-16T17:50:12;18.60;98.70
8910;DHT22;4490;49.072;8.804;2022-10-16T17:52:37;18.60;99.10
8910;DHT22;4490;49.072;8.804;2022-10-16T17:55:03;18.50;99.30
8910;DHT22;4490;49.072;8.804;2022-10-16T17:57:29;18.50;99.60
8910;DHT22;4490;49.072;8.804;2022-10-16T17:59:55;18.50;99.90